Portada
METAR-TAF:

METAR-TAF

Aeroports :

Teheran, Iran

latitud: 35-41N, longitud: 051-21E, altitud: 1204 m

Observació

L'informe es va fer fa 34 minuts, a les 14:00 UTC
Vent 6 kt del Sud/Sud-Oest
Temperatura 29°C
Humitat 20%
Pressió 1019 hPa
Visibilitat 10 km o més
sense núvols per sota de 1500 mi sense presència de cumulonimbus.

METAR: OIII 151400Z 21006KT CAVOK 29/04 Q1019 A3010 NOSIG

Hora: 19:04 (14:34 UTC)

Pronòstic

L'informe es va fer fa 3 hores i 34 minuts, a les 11:00 UTC
Pronòstic vàlid del 15 a les 12 UTC al 16 a les 18 UTC
Vent 8 kt del Sud-Est
Visibilitat 10 km o més
sense núvols per sota de 1500 mi sense presència de cumulonimbus.
Temporalment
l' 16 a les 12 UTC al 16 a les 18 UTC
Vent 16 kt del Sud-Est

TAF: OIII 151100Z 1512/1618 14008KT CAVOK TEMPO 1612/1618 14016KT

Observacions i pronòstics meteorològics de més de 4000 aeroports (METAR i TAF).

Les estacions disponibles són els punts grocs i vermells al mapa.

Posi el ratolí al punt desitjat per veure el nom de l'estació.

Feu clic per veure les observacions i els pronòstics meteorològics.

Per canviar el mapa: feu clic els botons verds amb una creu de color negre per apropar; al botó verd amb un guió per allunyar la imatge; o en les fletxes verdes per a mapes adjacents.


METAR-TAF: